createdAt,value
2018-03-07T00:00:37.363Z,0
2018-03-07T00:01:17.865Z,0
2018-03-07T00:01:58.405Z,0
2018-03-07T00:02:38.911Z,0
2018-03-07T00:03:19.422Z,0
2018-03-07T00:03:59.946Z,0
2018-03-07T00:04:40.468Z,0
2018-03-07T00:05:20.995Z,0
2018-03-07T00:06:01.518Z,0
2018-03-07T00:06:42.624Z,0
2018-03-07T00:07:23.161Z,0
2018-03-07T00:08:03.675Z,0
2018-03-07T00:08:44.218Z,0
2018-03-07T00:09:24.721Z,0
2018-03-07T00:10:05.239Z,0
2018-03-07T00:10:45.743Z,0
2018-03-07T00:11:26.401Z,0
2018-03-07T00:12:06.843Z,0
2018-03-07T00:12:47.355Z,0
2018-03-07T00:13:27.855Z,0
2018-03-07T00:14:08.360Z,0
2018-03-07T00:14:48.921Z,0
2018-03-07T00:15:29.398Z,0
2018-03-07T00:16:09.918Z,0
2018-03-07T00:16:50.418Z,0
2018-03-07T00:17:30.930Z,0
2018-03-07T00:18:11.449Z,0
2018-03-07T00:18:51.957Z,0
2018-03-07T00:19:32.481Z,0
2018-03-07T00:20:13.009Z,0
2018-03-07T00:20:53.525Z,0
2018-03-07T00:21:34.035Z,0
2018-03-07T00:22:14.548Z,0
2018-03-07T00:22:55.028Z,0
2018-03-07T00:23:35.582Z,0
2018-03-07T00:24:16.113Z,0
2018-03-07T00:24:56.632Z,0
2018-03-07T00:25:37.143Z,0
2018-03-07T00:26:17.650Z,0
2018-03-07T00:26:58.290Z,0
2018-03-07T00:27:38.827Z,0
2018-03-07T00:28:19.337Z,0
2018-03-07T00:28:59.848Z,0
2018-03-07T00:29:40.354Z,0
2018-03-07T00:30:20.881Z,0
2018-03-07T00:31:01.393Z,0
2018-03-07T00:31:41.939Z,0
2018-03-07T00:32:22.501Z,0
2018-03-07T00:33:02.995Z,0
2018-03-07T00:33:43.525Z,0
2018-03-07T00:34:24.016Z,0
2018-03-07T00:35:04.538Z,0
2018-03-07T00:35:45.051Z,0
2018-03-07T00:36:25.566Z,0
2018-03-07T00:37:06.082Z,0
2018-03-07T00:37:46.595Z,0
2018-03-07T00:38:27.093Z,0
2018-03-07T00:39:07.621Z,0
2018-03-07T00:39:48.114Z,0
2018-03-07T00:40:28.629Z,0
2018-03-07T00:41:09.150Z,0
2018-03-07T00:41:49.672Z,0
2018-03-07T00:42:30.186Z,0
2018-03-07T00:43:10.702Z,0
2018-03-07T00:43:51.207Z,0
2018-03-07T00:44:31.742Z,0
2018-03-07T00:45:12.259Z,0
2018-03-07T00:45:52.765Z,0
2018-03-07T00:46:33.293Z,0
2018-03-07T00:47:13.769Z,0
2018-03-07T00:47:54.297Z,0
2018-03-07T00:48:34.951Z,0
2018-03-07T00:49:15.431Z,0
2018-03-07T00:49:55.950Z,0
2018-03-07T00:50:36.444Z,0
2018-03-07T00:51:16.977Z,0
2018-03-07T00:51:57.492Z,0
2018-03-07T00:52:38.042Z,0
2018-03-07T00:53:18.570Z,0
2018-03-07T00:53:59.074Z,0
2018-03-07T00:54:39.589Z,0
2018-03-07T00:55:20.103Z,0
2018-03-07T00:56:00.626Z,0
2018-03-07T00:56:41.149Z,0
2018-03-07T00:57:21.706Z,0
2018-03-07T00:58:02.206Z,0
2018-03-07T00:58:42.730Z,0
2018-03-07T00:59:23.299Z,0
2018-03-07T01:00:03.736Z,0
2018-03-07T01:00:45.127Z,0
2018-03-07T01:01:24.888Z,0
2018-03-07T01:02:05.403Z,0
2018-03-07T01:02:45.937Z,0
2018-03-07T01:03:26.482Z,0
2018-03-07T01:05:26.413Z,0
2018-03-07T01:06:06.932Z,0
2018-03-07T01:06:47.441Z,0
2018-03-07T01:07:27.990Z,0
2018-03-07T01:08:08.508Z,0
2018-03-07T01:08:49.047Z,0
2018-03-07T01:09:29.562Z,0
2018-03-07T01:10:10.063Z,0
2018-03-07T01:10:50.584Z,0
2018-03-07T01:12:50.520Z,0
2018-03-07T01:13:31.080Z,0
2018-03-07T01:14:11.573Z,0
2018-03-07T01:14:52.081Z,0
2018-03-07T01:15:32.584Z,0
2018-03-07T01:16:13.107Z,0
2018-03-07T01:16:53.611Z,0
2018-03-07T01:17:34.127Z,0
2018-03-07T01:18:14.638Z,0
2018-03-07T01:18:55.229Z,0
2018-03-07T01:19:35.758Z,0
2018-03-07T01:20:16.278Z,0
2018-03-07T01:20:56.807Z,0
2018-03-07T01:21:37.318Z,0
2018-03-07T01:22:17.829Z,0
2018-03-07T01:22:58.352Z,0
2018-03-07T01:23:38.863Z,0
2018-03-07T01:24:19.397Z,0
2018-03-07T01:24:59.914Z,0
2018-03-07T01:25:40.428Z,0
2018-03-07T01:26:20.924Z,0
2018-03-07T01:27:01.450Z,0
2018-03-07T01:27:41.964Z,0
2018-03-07T01:28:22.475Z,0
2018-03-07T01:29:02.991Z,0
2018-03-07T01:29:43.532Z,0
2018-03-07T01:30:24.054Z,0
2018-03-07T01:31:04.556Z,0
2018-03-07T01:31:45.064Z,0
2018-03-07T01:32:25.587Z,0
2018-03-07T01:33:06.104Z,0
2018-03-07T01:33:46.620Z,0
2018-03-07T01:34:27.117Z,0
2018-03-07T01:35:07.641Z,0
2018-03-07T01:35:48.158Z,0
2018-03-07T01:36:28.706Z,0
2018-03-07T01:37:09.216Z,0
2018-03-07T01:37:49.727Z,0
2018-03-07T01:38:30.232Z,0
2018-03-07T01:39:10.737Z,0
2018-03-07T01:39:51.250Z,0
2018-03-07T01:40:31.752Z,0
2018-03-07T01:41:12.271Z,0
2018-03-07T01:41:52.775Z,0
2018-03-07T01:42:33.304Z,0
2018-03-07T01:43:13.839Z,0
2018-03-07T01:43:54.368Z,0
2018-03-07T01:44:34.857Z,0
2018-03-07T01:45:15.369Z,0
2018-03-07T01:45:55.869Z,0
2018-03-07T01:46:36.374Z,0
2018-03-07T01:47:16.894Z,0
2018-03-07T01:47:57.396Z,0
2018-03-07T01:48:37.900Z,0
2018-03-07T01:49:18.420Z,0
2018-03-07T01:49:58.924Z,0
2018-03-07T01:50:39.432Z,0
2018-03-07T01:51:19.947Z,0
2018-03-07T01:52:00.477Z,0
2018-03-07T01:52:40.978Z,0
2018-03-07T01:53:21.484Z,0
2018-03-07T01:54:01.992Z,0
2018-03-07T01:54:42.507Z,0
2018-03-07T01:55:23.058Z,0
2018-03-07T01:56:03.586Z,0
2018-03-07T01:56:44.078Z,0
2018-03-07T01:57:24.577Z,0
2018-03-07T01:58:05.105Z,0
2018-03-07T01:58:45.617Z,0
2018-03-07T01:59:26.133Z,0
2018-03-07T02:00:06.653Z,0
2018-03-07T02:00:47.166Z,0
2018-03-07T02:01:27.686Z,0
2018-03-07T02:02:08.181Z,0
2018-03-07T02:02:48.722Z,0
2018-03-07T02:03:29.243Z,0
2018-03-07T02:04:09.778Z,0
2018-03-07T02:04:50.277Z,0
2018-03-07T02:05:30.788Z,0
2018-03-07T02:06:11.301Z,0
2018-03-07T02:06:51.813Z,0
2018-03-07T02:07:32.328Z,0
2018-03-07T02:08:12.834Z,0
2018-03-07T02:08:53.341Z,0
2018-03-07T02:09:33.859Z,0
2018-03-07T02:10:14.372Z,0
2018-03-07T02:10:54.904Z,0
2018-03-07T02:11:35.420Z,0
2018-03-07T02:12:15.932Z,0
2018-03-07T02:12:56.454Z,0
2018-03-07T02:13:36.968Z,0
2018-03-07T02:14:17.484Z,0
2018-03-07T02:14:57.999Z,0
2018-03-07T02:15:38.513Z,0
2018-03-07T02:16:19.037Z,0
2018-03-07T02:16:59.555Z,0
2018-03-07T02:17:40.076Z,0
2018-03-07T02:18:20.587Z,0
2018-03-07T02:19:01.108Z,0
2018-03-07T02:19:41.641Z,0
2018-03-07T02:20:22.144Z,0
2018-03-07T02:21:02.671Z,0
2018-03-07T02:21:43.184Z,0
2018-03-07T02:22:23.704Z,0
2018-03-07T02:23:04.205Z,0
2018-03-07T02:23:44.720Z,0
2018-03-07T02:24:25.273Z,0
2018-03-07T02:25:05.811Z,0
2018-03-07T02:25:46.273Z,0
2018-03-07T02:26:26.785Z,0
2018-03-07T02:27:07.310Z,0
2018-03-07T02:27:47.835Z,0
2018-03-07T02:28:28.342Z,0
2018-03-07T02:29:08.864Z,0
2018-03-07T02:29:49.377Z,0
2018-03-07T02:30:29.887Z,0
2018-03-07T02:31:10.407Z,0
2018-03-07T02:31:50.918Z,0
2018-03-07T02:32:31.438Z,0
2018-03-07T02:33:11.948Z,0
2018-03-07T02:33:52.457Z,0
2018-03-07T02:34:32.989Z,0
2018-03-07T02:35:13.509Z,0
2018-03-07T02:35:54.028Z,0
2018-03-07T02:36:34.539Z,0
2018-03-07T02:37:15.058Z,0
2018-03-07T02:37:55.580Z,0
2018-03-07T02:38:36.092Z,0
2018-03-07T02:39:16.623Z,0
2018-03-07T02:39:57.143Z,0
2018-03-07T02:40:37.675Z,0
2018-03-07T02:41:18.172Z,0
2018-03-07T02:41:58.688Z,0
2018-03-07T02:42:39.208Z,0
2018-03-07T02:43:19.724Z,0
2018-03-07T02:44:00.241Z,0
2018-03-07T02:44:40.765Z,0
2018-03-07T02:45:21.290Z,0
2018-03-07T02:46:01.785Z,0
2018-03-07T02:46:42.296Z,0
2018-03-07T02:47:22.818Z,0
2018-03-07T02:48:03.330Z,0
2018-03-07T02:48:43.849Z,0
2018-03-07T02:49:24.365Z,0
2018-03-07T02:50:04.870Z,0
2018-03-07T02:50:45.394Z,0
2018-03-07T02:51:25.905Z,0
2018-03-07T02:52:06.414Z,0
2018-03-07T02:52:46.936Z,0
2018-03-07T02:53:27.451Z,0
2018-03-07T02:54:07.966Z,0
2018-03-07T02:54:48.477Z,0
2018-03-07T02:55:29.002Z,0
2018-03-07T02:56:09.523Z,0
2018-03-07T02:56:50.032Z,0
2018-03-07T02:57:30.546Z,0
2018-03-07T02:58:11.075Z,0
2018-03-07T02:58:51.584Z,0
2018-03-07T02:59:32.100Z,0
2018-03-07T03:00:12.623Z,0
2018-03-07T03:00:53.131Z,0
2018-03-07T03:01:33.646Z,0
2018-03-07T03:02:14.146Z,0
2018-03-07T03:02:54.683Z,0
2018-03-07T03:03:35.194Z,0
2018-03-07T03:04:15.725Z,0
2018-03-07T03:04:56.240Z,0
2018-03-07T03:05:36.792Z,0
2018-03-07T03:06:17.308Z,0
2018-03-07T03:06:57.827Z,0
2018-03-07T03:07:38.329Z,0
2018-03-07T03:08:18.857Z,0
2018-03-07T03:08:59.375Z,0
2018-03-07T03:09:39.888Z,0
2018-03-07T03:10:20.404Z,0
2018-03-07T03:12:40.552Z,0
2018-03-07T03:13:21.066Z,0
2018-03-07T03:14:01.601Z,0
2018-03-07T03:14:42.120Z,0
2018-03-07T03:15:22.636Z,0
2018-03-07T03:16:03.146Z,0
2018-03-07T03:16:43.684Z,0
2018-03-07T03:17:24.182Z,0
2018-03-07T03:18:04.694Z,0
2018-03-07T03:18:45.216Z,0
2018-03-07T03:19:25.725Z,0
2018-03-07T03:20:06.228Z,0
2018-03-07T03:20:46.738Z,0
2018-03-07T03:21:27.243Z,0
2018-03-07T03:22:07.758Z,0
2018-03-07T03:22:48.272Z,0
2018-03-07T03:23:28.786Z,0
2018-03-07T03:24:09.298Z,0
2018-03-07T03:24:49.811Z,0
2018-03-07T03:25:30.299Z,0
2018-03-07T03:26:10.818Z,0
2018-03-07T03:26:51.331Z,0
2018-03-07T03:27:31.843Z,0
2018-03-07T03:28:12.356Z,0
2018-03-07T03:28:52.872Z,0
2018-03-07T03:29:33.376Z,0
2018-03-07T03:30:13.869Z,0
2018-03-07T03:30:54.373Z,0
2018-03-07T03:31:34.889Z,0
2018-03-07T03:32:15.402Z,0
2018-03-07T03:32:55.899Z,0
2018-03-07T03:33:36.417Z,0
2018-03-07T03:34:16.927Z,0
2018-03-07T03:34:57.446Z,0
2018-03-07T03:35:37.945Z,0
2018-03-07T03:36:18.469Z,0
2018-03-07T03:36:58.975Z,0
2018-03-07T03:37:39.486Z,0
2018-03-07T03:38:20.017Z,0
2018-03-07T03:39:00.521Z,0
2018-03-07T03:39:41.029Z,0
2018-03-07T03:40:21.538Z,0
2018-03-07T03:41:02.051Z,0
2018-03-07T03:41:42.560Z,0
2018-03-07T03:42:23.051Z,0
2018-03-07T03:43:03.561Z,0
2018-03-07T03:43:44.080Z,0
2018-03-07T03:44:24.590Z,0
2018-03-07T03:45:05.116Z,0
2018-03-07T03:45:45.691Z,0
2018-03-07T03:46:26.667Z,0
2018-03-07T03:47:06.646Z,0
2018-03-07T03:47:47.146Z,0
2018-03-07T03:48:27.660Z,0
2018-03-07T03:49:08.172Z,0
2018-03-07T03:49:48.677Z,0
2018-03-07T03:50:29.188Z,0
2018-03-07T03:51:09.698Z,0
2018-03-07T03:51:50.208Z,0
2018-03-07T03:52:30.725Z,0
2018-03-07T03:53:11.238Z,0
2018-03-07T03:53:51.755Z,0
2018-03-07T03:54:32.268Z,0
2018-03-07T03:55:12.784Z,0
2018-03-07T03:55:53.299Z,0
2018-03-07T03:56:33.809Z,0
2018-03-07T03:57:14.327Z,0
2018-03-07T03:57:54.854Z,0
2018-03-07T03:58:35.364Z,0
2018-03-07T03:59:15.899Z,0
2018-03-07T03:59:56.420Z,0
2018-03-07T04:00:36.932Z,0
2018-03-07T04:01:17.448Z,0
2018-03-07T04:01:57.965Z,0
2018-03-07T04:02:38.468Z,0
2018-03-07T04:03:18.972Z,0
2018-03-07T04:03:59.484Z,0
2018-03-07T04:04:39.995Z,0
2018-03-07T04:05:20.508Z,0
2018-03-07T04:06:01.017Z,0
2018-03-07T04:06:41.535Z,0
2018-03-07T04:07:22.056Z,0
2018-03-07T04:08:02.570Z,0
2018-03-07T04:08:43.081Z,0
2018-03-07T04:09:23.593Z,0
2018-03-07T04:10:04.103Z,0
2018-03-07T04:10:44.618Z,0
2018-03-07T04:11:25.125Z,0
2018-03-07T04:12:05.644Z,0
2018-03-07T04:12:46.152Z,0
2018-03-07T04:13:26.670Z,0
2018-03-07T04:14:07.197Z,0
2018-03-07T04:14:47.709Z,0
2018-03-07T04:15:28.228Z,0
2018-03-07T04:16:08.733Z,0
2018-03-07T04:16:49.243Z,0
2018-03-07T04:17:29.759Z,0
2018-03-07T04:18:10.275Z,0
2018-03-07T04:18:50.808Z,0
2018-03-07T04:19:31.336Z,0
2018-03-07T04:20:11.853Z,0
2018-03-07T04:20:52.376Z,0
2018-03-07T04:21:32.882Z,0
2018-03-07T04:22:13.389Z,0
2018-03-07T04:22:53.903Z,0
2018-03-07T04:23:34.406Z,0
2018-03-07T04:24:14.917Z,0
2018-03-07T04:24:55.433Z,0
2018-03-07T04:25:35.959Z,0
2018-03-07T04:26:16.465Z,0
2018-03-07T04:26:56.982Z,0
2018-03-07T04:27:37.489Z,0
2018-03-07T04:28:18.022Z,0
2018-03-07T04:28:58.534Z,0
2018-03-07T04:29:39.045Z,0
2018-03-07T04:30:19.572Z,0
2018-03-07T04:31:00.089Z,0
2018-03-07T04:31:40.621Z,0
2018-03-07T04:32:21.131Z,0
2018-03-07T04:33:01.632Z,0
2018-03-07T04:33:42.148Z,0
2018-03-07T04:34:22.667Z,0
2018-03-07T04:35:03.178Z,0
2018-03-07T04:35:43.699Z,0
2018-03-07T04:36:24.220Z,0
2018-03-07T04:37:04.734Z,0
2018-03-07T04:37:45.240Z,0
2018-03-07T04:38:25.766Z,0
2018-03-07T04:39:06.279Z,0
2018-03-07T04:39:46.783Z,0
2018-03-07T04:40:27.301Z,0
2018-03-07T04:41:07.830Z,0
2018-03-07T04:41:48.332Z,0
2018-03-07T04:42:28.850Z,0
2018-03-07T04:43:09.353Z,0
2018-03-07T04:43:49.902Z,0
2018-03-07T04:44:30.413Z,0
2018-03-07T04:45:10.936Z,0
2018-03-07T04:45:51.454Z,0
2018-03-07T04:46:31.991Z,0
2018-03-07T04:47:12.500Z,0
2018-03-07T04:47:53.033Z,0
2018-03-07T04:48:33.542Z,0
2018-03-07T04:49:14.052Z,0
2018-03-07T04:49:54.561Z,0
2018-03-07T04:50:35.083Z,0
2018-03-07T04:51:15.594Z,0
2018-03-07T04:51:56.070Z,0
2018-03-07T04:52:36.553Z,0
2018-03-07T04:53:17.052Z,0
2018-03-07T04:53:57.545Z,0
2018-03-07T04:54:38.086Z,0
2018-03-07T04:55:18.613Z,0
2018-03-07T04:55:59.134Z,0
2018-03-07T04:56:39.623Z,0
2018-03-07T04:57:20.142Z,0
2018-03-07T04:58:00.647Z,0
2018-03-07T04:58:41.240Z,0
2018-03-07T04:59:21.677Z,0
2018-03-07T05:00:02.186Z,0
2018-03-07T05:00:42.692Z,0
2018-03-07T05:01:23.206Z,0
2018-03-07T05:02:03.708Z,0
2018-03-07T05:02:44.307Z,0
2018-03-07T05:03:24.752Z,0
2018-03-07T05:04:05.266Z,0
2018-03-07T05:04:45.789Z,0
2018-03-07T05:05:26.318Z,0
2018-03-07T05:06:06.855Z,0
2018-03-07T05:06:47.371Z,0
2018-03-07T05:07:27.875Z,0
2018-03-07T05:08:08.412Z,0
2018-03-07T05:08:48.935Z,0
2018-03-07T05:09:29.462Z,0
2018-03-07T05:10:09.966Z,0
2018-03-07T05:10:50.481Z,0
2018-03-07T05:11:30.989Z,0
2018-03-07T05:12:11.501Z,0
2018-03-07T05:12:52.009Z,0
2018-03-07T05:13:32.534Z,0
2018-03-07T05:14:13.053Z,0
2018-03-07T05:14:53.557Z,0
2018-03-07T05:15:34.073Z,0
2018-03-07T05:16:14.589Z,0
2018-03-07T05:16:55.108Z,0
2018-03-07T05:17:35.620Z,0
2018-03-07T05:18:16.132Z,0
2018-03-07T05:18:56.640Z,0
2018-03-07T05:19:37.180Z,0
2018-03-07T05:20:17.693Z,0
2018-03-07T05:20:58.207Z,0
2018-03-07T05:21:38.723Z,0
2018-03-07T05:22:19.234Z,0
2018-03-07T05:22:59.749Z,0
2018-03-07T05:23:40.266Z,0
2018-03-07T05:24:20.830Z,0
2018-03-07T05:25:01.286Z,0
2018-03-07T05:25:41.815Z,0
2018-03-07T05:26:22.320Z,0
2018-03-07T05:27:02.834Z,0
2018-03-07T05:27:43.406Z,0
2018-03-07T05:28:23.920Z,0
2018-03-07T05:29:04.953Z,0
2018-03-07T05:29:45.483Z,0
2018-03-07T05:30:26.002Z,0
2018-03-07T05:31:06.513Z,0
2018-03-07T05:31:47.024Z,0
2018-03-07T05:32:27.545Z,0
2018-03-07T05:33:08.057Z,0
2018-03-07T05:33:48.568Z,0
2018-03-07T05:34:29.091Z,4
2018-03-07T05:35:09.594Z,4
2018-03-07T05:35:50.109Z,4
2018-03-07T05:36:30.622Z,4
2018-03-07T05:37:11.143Z,0
2018-03-07T05:37:51.653Z,0
2018-03-07T05:38:32.171Z,4
2018-03-07T05:39:12.677Z,4
2018-03-07T05:39:53.185Z,4
2018-03-07T05:40:33.700Z,4
2018-03-07T05:41:14.217Z,8
2018-03-07T05:41:54.721Z,4
2018-03-07T05:42:35.236Z,8
2018-03-07T05:43:15.763Z,8
2018-03-07T05:43:56.281Z,8
2018-03-07T05:44:36.798Z,8
2018-03-07T05:45:17.308Z,12
2018-03-07T05:45:57.824Z,12
2018-03-07T05:46:38.341Z,12
2018-03-07T05:47:18.859Z,16
2018-03-07T05:47:59.377Z,20
2018-03-07T05:48:39.894Z,16
2018-03-07T05:49:20.418Z,20
2018-03-07T05:50:00.925Z,24
2018-03-07T05:50:41.441Z,24
2018-03-07T05:51:22.701Z,20
2018-03-07T05:52:02.455Z,24
2018-03-07T05:52:42.988Z,24
2018-03-07T05:53:23.493Z,24
2018-03-07T05:54:04.006Z,24
2018-03-07T05:54:44.524Z,24
2018-03-07T05:55:25.032Z,28
2018-03-07T05:56:05.555Z,24
2018-03-07T05:56:46.098Z,24
2018-03-07T05:57:26.591Z,24
2018-03-07T05:58:07.181Z,24
2018-03-07T05:58:47.710Z,24
2018-03-07T05:59:28.210Z,24
2018-03-07T06:00:08.769Z,24
2018-03-07T06:00:49.244Z,24
2018-03-07T06:01:29.989Z,24
2018-03-07T06:02:10.425Z,24
2018-03-07T06:02:51.191Z,24
2018-03-07T06:03:31.508Z,28
2018-03-07T06:04:11.974Z,32
2018-03-07T06:04:52.505Z,36
2018-03-07T06:05:33.008Z,40
2018-03-07T06:06:13.520Z,48
2018-03-07T06:06:54.035Z,48
2018-03-07T06:07:34.540Z,48
2018-03-07T06:08:15.066Z,48
2018-03-07T06:08:55.581Z,52
2018-03-07T06:09:36.086Z,56
2018-03-07T06:10:16.604Z,56
2018-03-07T06:10:57.119Z,64
2018-03-07T06:11:37.629Z,68
2018-03-07T06:12:18.153Z,68
2018-03-07T06:12:58.673Z,72
2018-03-07T06:13:39.171Z,72
2018-03-07T06:14:19.685Z,76
2018-03-07T06:15:00.197Z,76
2018-03-07T06:15:40.720Z,68
2018-03-07T06:16:21.230Z,56
2018-03-07T06:17:01.739Z,52
2018-03-07T06:17:42.245Z,56
2018-03-07T06:18:22.754Z,60
2018-03-07T06:19:03.265Z,64
2018-03-07T06:19:43.776Z,72
2018-03-07T06:20:24.316Z,80
2018-03-07T06:21:05.045Z,88
2018-03-07T06:21:45.339Z,96
2018-03-07T06:22:25.984Z,108
2018-03-07T06:23:07.209Z,124
2018-03-07T06:23:47.078Z,136
2018-03-07T06:24:27.802Z,152
2018-03-07T06:25:08.118Z,172
2018-03-07T06:25:48.730Z,192
2018-03-07T06:26:29.241Z,216
2018-03-07T06:27:09.752Z,236
2018-03-07T06:27:50.318Z,256
2018-03-07T06:28:30.848Z,300
2018-03-07T06:29:11.373Z,336
2018-03-07T06:29:51.877Z,372
2018-03-07T06:30:32.479Z,412
2018-03-07T06:31:13.010Z,460
2018-03-07T06:31:53.542Z,524
2018-03-07T06:32:34.062Z,596
2018-03-07T06:33:15.470Z,668
2018-03-07T06:33:56.020Z,728
2018-03-07T06:34:36.547Z,756
2018-03-07T06:35:17.065Z,756
2018-03-07T06:35:57.580Z,752
2018-03-07T06:36:38.100Z,748
2018-03-07T06:37:18.630Z,716
2018-03-07T06:37:59.142Z,644
2018-03-07T06:38:39.652Z,560
2018-03-07T06:39:20.167Z,504
2018-03-07T06:40:00.686Z,472
2018-03-07T06:40:41.210Z,448
2018-03-07T06:41:21.710Z,428
2018-03-07T06:42:02.223Z,412
2018-03-07T06:42:42.746Z,400
2018-03-07T06:43:23.257Z,388
2018-03-07T06:44:03.774Z,380
2018-03-07T06:44:44.336Z,376
2018-03-07T06:45:24.858Z,368
2018-03-07T06:46:05.384Z,356
2018-03-07T06:46:45.906Z,344
2018-03-07T06:47:26.416Z,328
2018-03-07T06:48:06.920Z,320
2018-03-07T06:48:47.440Z,316
2018-03-07T06:49:27.948Z,308
2018-03-07T06:50:08.463Z,300
2018-03-07T06:50:48.993Z,296
2018-03-07T06:51:29.502Z,296
2018-03-07T06:52:10.029Z,292
2018-03-07T06:52:50.526Z,300
2018-03-07T06:53:31.039Z,296
2018-03-07T06:54:11.561Z,288
2018-03-07T06:54:52.090Z,280
2018-03-07T06:55:32.601Z,284
2018-03-07T06:56:13.124Z,300
2018-03-07T06:56:53.634Z,320
2018-03-07T06:57:34.157Z,336
2018-03-07T06:58:14.724Z,344
2018-03-07T06:58:55.214Z,352
2018-03-07T06:59:35.716Z,368
2018-03-07T07:00:16.218Z,388
2018-03-07T07:00:56.737Z,420
2018-03-07T07:01:37.264Z,480
2018-03-07T07:02:17.789Z,536
2018-03-07T07:02:58.297Z,628
2018-03-07T07:03:38.812Z,884
2018-03-07T07:04:19.340Z,900
2018-03-07T07:04:59.961Z,880
2018-03-07T07:05:40.504Z,1072
2018-03-07T07:06:20.989Z,1644
2018-03-07T07:07:01.526Z,1816
2018-03-07T07:07:42.035Z,2216
2018-03-07T07:08:22.559Z,2280
2018-03-07T07:09:03.083Z,2388
2018-03-07T07:09:43.611Z,2440
2018-03-07T07:10:24.117Z,2476
2018-03-07T07:11:04.636Z,2536
2018-03-07T07:11:45.164Z,2284
2018-03-07T07:12:25.711Z,2316
2018-03-07T07:13:06.289Z,2196
2018-03-07T07:13:46.804Z,2112
2018-03-07T07:14:27.307Z,2096
2018-03-07T07:15:07.844Z,2108
2018-03-07T07:15:48.375Z,2120
2018-03-07T07:16:28.863Z,2128
2018-03-07T07:17:09.384Z,2188
2018-03-07T07:17:49.926Z,2264
2018-03-07T07:18:30.471Z,2324
2018-03-07T07:19:10.992Z,2416
2018-03-07T07:19:51.510Z,2728
2018-03-07T07:20:32.022Z,2472
2018-03-07T07:21:12.532Z,2480
2018-03-07T07:21:53.065Z,2484
2018-03-07T07:22:33.580Z,2468
2018-03-07T07:23:14.108Z,2368
2018-03-07T07:23:54.612Z,2204
2018-03-07T07:24:35.136Z,2068
2018-03-07T07:25:15.650Z,1924
2018-03-07T07:25:57.129Z,1876
2018-03-07T07:26:37.579Z,1860
2018-03-07T07:27:18.078Z,1896
2018-03-07T07:27:58.592Z,1912
2018-03-07T07:28:39.164Z,1920
2018-03-07T07:29:19.676Z,1916
2018-03-07T07:30:00.278Z,1912
2018-03-07T07:30:40.816Z,1876
2018-03-07T07:31:21.318Z,1936
2018-03-07T07:32:01.840Z,1928
2018-03-07T07:32:42.365Z,1908
2018-03-07T07:33:23.284Z,1888
2018-03-07T07:34:03.804Z,1816
2018-03-07T07:34:44.411Z,1788
2018-03-07T07:35:24.927Z,1772
2018-03-07T07:36:05.444Z,1692
2018-03-07T07:36:45.939Z,1616
2018-03-07T07:37:26.500Z,1544
2018-03-07T07:38:07.017Z,1492
2018-03-07T07:38:47.555Z,1460
2018-03-07T07:39:28.065Z,1472
2018-03-07T07:40:08.579Z,1512
2018-03-07T07:40:49.102Z,1560
2018-03-07T07:41:29.643Z,1596
2018-03-07T07:42:10.150Z,1628
2018-03-07T07:42:50.667Z,1648
2018-03-07T07:43:31.489Z,1652
2018-03-07T07:44:12.850Z,1648
2018-03-07T07:44:53.301Z,1652
2018-03-07T07:45:33.820Z,1684
2018-03-07T07:46:14.337Z,1672
2018-03-07T07:46:54.997Z,1608
2018-03-07T07:47:35.501Z,1564
2018-03-07T07:48:16.010Z,1496
2018-03-07T07:48:56.491Z,1400
2018-03-07T07:49:36.984Z,1324
2018-03-07T07:50:17.466Z,1272
2018-03-07T07:50:57.978Z,1280
2018-03-07T07:51:38.476Z,1284
2018-03-07T07:52:19.003Z,1284
2018-03-07T07:53:00.309Z,1288
2018-03-07T07:53:40.854Z,1304
2018-03-07T07:54:21.337Z,1328
2018-03-07T07:55:01.869Z,1348
2018-03-07T07:55:42.377Z,1392
2018-03-07T07:56:22.899Z,1460
2018-03-07T07:57:03.414Z,1500
2018-03-07T07:57:43.935Z,1544
2018-03-07T07:58:24.422Z,1600
2018-03-07T07:59:04.939Z,1684
2018-03-07T07:59:45.458Z,1828
2018-03-07T08:00:25.972Z,1904
2018-03-07T08:01:06.502Z,1920
2018-03-07T08:01:47.023Z,1944
2018-03-07T08:02:27.476Z,1964
2018-03-07T08:03:07.977Z,1976
2018-03-07T08:03:48.480Z,2000
2018-03-07T08:04:29.235Z,1964
2018-03-07T08:05:09.735Z,1952
2018-03-07T08:05:50.246Z,1916
2018-03-07T08:06:30.726Z,1916
2018-03-07T08:07:11.231Z,1884
2018-03-07T08:07:51.756Z,1856
2018-03-07T08:08:32.269Z,1812
2018-03-07T08:09:12.777Z,1724
2018-03-07T08:09:53.318Z,1652
2018-03-07T08:10:33.840Z,1636
2018-03-07T08:11:14.373Z,1640
2018-03-07T08:11:54.883Z,1652
2018-03-07T08:12:35.414Z,1624
2018-03-07T08:13:15.928Z,1584
2018-03-07T08:13:56.454Z,1560
2018-03-07T08:14:37.095Z,1540
2018-03-07T08:15:17.601Z,1528
2018-03-07T08:15:58.108Z,1508
2018-03-07T08:16:38.621Z,1488
2018-03-07T08:17:19.140Z,1456
2018-03-07T08:17:59.641Z,1476
2018-03-07T08:18:40.160Z,1612
2018-03-07T08:19:20.686Z,1756
2018-03-07T08:20:01.227Z,1844
2018-03-07T08:20:41.735Z,1916
2018-03-07T08:21:22.249Z,1928
2018-03-07T08:22:02.766Z,1896
2018-03-07T08:22:43.278Z,1888
2018-03-07T08:23:23.796Z,1756
2018-03-07T08:24:04.312Z,1700
2018-03-07T08:24:44.844Z,1648
2018-03-07T08:25:25.375Z,1684
2018-03-07T08:26:05.886Z,1692
2018-03-07T08:26:46.413Z,1648
2018-03-07T08:27:26.916Z,1588
2018-03-07T08:28:07.432Z,1556
2018-03-07T08:28:47.943Z,1588
2018-03-07T08:29:28.447Z,1656
2018-03-07T08:30:30.349Z,1524
2018-03-07T08:31:10.850Z,1592
2018-03-07T08:31:51.350Z,1880
2018-03-07T08:32:31.873Z,2128
2018-03-07T08:33:12.387Z,2064
2018-03-07T08:33:52.934Z,1968
2018-03-07T08:34:33.464Z,1812
2018-03-07T08:35:13.984Z,1752
2018-03-07T08:35:54.516Z,1692
2018-03-07T08:36:35.063Z,1632
2018-03-07T08:37:16.111Z,1488
2018-03-07T08:37:57.083Z,1284
2018-03-07T08:38:38.153Z,1136
2018-03-07T08:39:18.697Z,1060
2018-03-07T08:39:59.404Z,1012
2018-03-07T08:40:40.125Z,1004
2018-03-07T08:41:20.705Z,1100
2018-03-07T08:42:01.280Z,1244
2018-03-07T08:42:41.898Z,1424
2018-03-07T08:43:22.410Z,1504
2018-03-07T08:44:02.922Z,1536
2018-03-07T08:44:43.441Z,1588
2018-03-07T08:45:23.997Z,1680
2018-03-07T08:46:04.530Z,1748
2018-03-07T08:46:45.092Z,1784
2018-03-07T08:47:25.611Z,1832
2018-03-07T08:48:06.136Z,1900
2018-03-07T08:48:46.654Z,1948
2018-03-07T08:49:27.162Z,1916
2018-03-07T08:50:07.854Z,1892
2018-03-07T08:50:48.384Z,1828
2018-03-07T08:51:28.974Z,1808
2018-03-07T08:52:09.495Z,1884
2018-03-07T08:52:50.003Z,2016
2018-03-07T08:53:30.524Z,2116
2018-03-07T08:54:11.049Z,2248
2018-03-07T08:54:51.586Z,2400
2018-03-07T08:55:32.112Z,2548
2018-03-07T08:56:12.597Z,2816
2018-03-07T08:58:27.631Z,3752
2018-03-07T08:59:08.163Z,4040
2018-03-07T08:59:48.676Z,4212
2018-03-07T09:00:29.209Z,4240
2018-03-07T09:01:09.706Z,4192
2018-03-07T09:01:50.230Z,4208
2018-03-07T09:02:30.742Z,4212
2018-03-07T09:03:11.258Z,4232
2018-03-07T09:03:51.788Z,4292
2018-03-07T09:04:32.314Z,4440
2018-03-07T09:05:12.839Z,4556
2018-03-07T09:05:53.349Z,4608
2018-03-07T09:06:33.866Z,4632
2018-03-07T09:07:14.367Z,4616
2018-03-07T09:07:54.856Z,4560
2018-03-07T09:08:35.384Z,4560
2018-03-07T09:09:15.902Z,4516
2018-03-07T09:09:56.415Z,4484
2018-03-07T09:10:36.930Z,4412
2018-03-07T09:11:17.421Z,4468
2018-03-07T09:11:57.922Z,4684
2018-03-07T09:12:38.467Z,4848
2018-03-07T09:13:18.982Z,4804
2018-03-07T09:13:59.493Z,4760
2018-03-07T09:14:40.046Z,4720
2018-03-07T09:15:20.560Z,4604
2018-03-07T09:16:01.111Z,4456
2018-03-07T09:16:41.609Z,4500
2018-03-07T09:17:22.103Z,4520
2018-03-07T09:18:02.612Z,4536
2018-03-07T09:18:43.155Z,4528
2018-03-07T09:19:23.684Z,4560
2018-03-07T09:20:04.254Z,4472
2018-03-07T09:20:44.785Z,4184
2018-03-07T09:21:25.302Z,4072
2018-03-07T09:22:05.802Z,3700
2018-03-07T09:22:46.324Z,3508
2018-03-07T09:23:26.840Z,3552
2018-03-07T09:24:07.361Z,3716
2018-03-07T09:24:47.890Z,3900
2018-03-07T09:25:28.408Z,3912
2018-03-07T09:26:08.930Z,3860
2018-03-07T09:26:49.443Z,3872
2018-03-07T09:27:29.981Z,3920
2018-03-07T09:28:10.490Z,4028
2018-03-07T09:28:51.006Z,4100
2018-03-07T09:29:31.558Z,4120
2018-03-07T09:30:12.091Z,4168
2018-03-07T09:30:52.602Z,4356
2018-03-07T09:31:33.121Z,4340
2018-03-07T09:32:13.633Z,4416
2018-03-07T09:32:54.136Z,4420
2018-03-07T09:33:34.647Z,4268
2018-03-07T09:34:15.169Z,4240
2018-03-07T09:34:55.700Z,4188
2018-03-07T09:35:36.209Z,4172
2018-03-07T09:36:16.726Z,4052
2018-03-07T09:36:57.248Z,3696
2018-03-07T09:37:37.791Z,3336
2018-03-07T09:38:18.320Z,3204
2018-03-07T09:38:58.822Z,3368
2018-03-07T09:39:39.322Z,3124
2018-03-07T09:40:19.869Z,2808
2018-03-07T09:41:00.389Z,2864
2018-03-07T09:41:40.895Z,2876
2018-03-07T09:42:21.419Z,2892
2018-03-07T09:43:01.948Z,2648
2018-03-07T09:43:42.488Z,2548